Time;durP1;ratioP1;P1;durP2;ratioP2;P2;SDS_P1;SDS_P2;PMS_P1;PMS_P2;Temp;Humidity;BMP_temperature;BMP_pressure;BME280_temperature;BME280_humidity;BME280_pressure;Samples;Min_cycle;Max_cycle;Signal;HPM_P1;HPM_P2
2021/08/22 00:01:58;;;;;;;5.57;3.58;;;;;;;19.17;74.60;98878.34;2617547;54;20125;-68
2021/08/22 00:04:31;;;;;;;5.03;3.55;;;;;;;19.18;74.38;98884.50;2618276;39;20097;-68
2021/08/22 00:07:01;;;;;;;4.68;3.10;;;;;;;19.10;74.51;98898.34;2617721;39;20514;-68
2021/08/22 00:09:31;;;;;;;4.15;3.55;;;;;;;19.04;74.47;98897.47;2616980;47;20038;-68
2021/08/22 00:12:00;;;;;;;6.68;3.33;;;;;;;18.99;75.02;98911.59;2616962;54;20195;-68
2021/08/22 00:14:30;;;;;;;5.20;3.58;;;;;;;18.94;74.94;98913.34;2617835;54;20042;-68
2021/08/22 00:17:02;;;;;;;4.57;3.65;;;;;;;18.97;74.81;98913.69;2617374;54;20074;-68
2021/08/22 00:19:31;;;;;;;4.07;3.45;;;;;;;18.91;74.89;98911.19;2617641;54;20034;-67
2021/08/22 00:22:01;;;;;;;4.85;3.50;;;;;;;18.92;75.35;98918.97;2617620;54;20030;-67
2021/08/22 00:24:30;;;;;;;5.47;3.30;;;;;;;18.94;74.77;98916.03;2617569;54;20031;-66
2021/08/22 00:27:00;;;;;;;4.32;3.28;;;;;;;18.96;75.23;98913.94;2617145;54;20110;-66
2021/08/22 00:29:29;;;;;;;4.10;3.13;;;;;;;19.01;74.97;98920.19;2616922;47;20093;-69
2021/08/22 00:32:02;;;;;;;4.43;3.53;;;;;;;19.00;75.30;98921.25;2617617;54;20038;-67
2021/08/22 00:34:31;;;;;;;5.50;3.40;;;;;;;19.02;75.17;98919.16;2617559;54;20627;-67
2021/08/22 00:37:01;;;;;;;4.68;3.60;;;;;;;19.05;75.17;98915.16;2617186;54;20048;-67
2021/08/22 00:39:31;;;;;;;3.53;3.13;;;;;;;19.04;75.16;98921.56;2617492;54;20645;-68
2021/08/22 00:42:01;;;;;;;5.53;3.85;;;;;;;19.09;74.88;98924.31;2620833;54;20035;-68
2021/08/22 00:44:31;;;;;;;5.95;3.65;;;;;;;19.09;75.27;98913.59;2620622;39;20560;-68
2021/08/22 00:47:04;;;;;;;4.03;3.33;;;;;;;19.07;75.30;98909.56;2618207;54;20151;-67
2021/08/22 00:49:33;;;;;;;5.65;3.70;;;;;;;19.04;75.04;98917.03;2618421;39;20471;-68
2021/08/22 00:52:03;;;;;;;4.28;3.38;;;;;;;19.07;75.13;98914.91;2616952;47;20053;-69
2021/08/22 00:54:32;;;;;;;5.93;3.25;;;;;;;19.14;75.31;98918.22;2617377;54;20554;-67
2021/08/22 00:57:02;;;;;;;3.75;3.35;;;;;;;19.13;74.99;98911.25;2617482;39;20114;-67
2021/08/22 00:59:32;;;;;;;4.03;3.22;;;;;;;19.07;75.64;98909.56;2617579;54;20106;-68
2021/08/22 01:02:05;;;;;;;6.35;3.90;;;;;;;19.02;75.84;98900.41;2617426;54;20166;-68
2021/08/22 01:04:46;;;;;;;6.57;3.40;;;;;;;19.01;75.91;98896.06;2617433;54;20030;-67
2021/08/22 01:07:23;;;;;;;5.97;3.80;;;;;;;18.93;75.84;98895.66;2617080;54;20158;-69
2021/08/22 01:09:54;;;;;;;5.43;3.90;;;;;;;18.90;76.25;98909.53;2617481;54;20031;-67
2021/08/22 01:12:31;;;;;;;6.25;3.70;;;;;;;18.77;76.24;98900.78;2618290;39;20173;-67
2021/08/22 01:15:05;;;;;;;4.68;3.30;;;;;;;18.73;76.29;98901.50;2618348;54;20042;-68
2021/08/22 01:17:42;;;;;;;10.18;4.13;;;;;;;18.68;76.83;98910.25;2618104;54;20138;-69
2021/08/22 01:20:19;;;;;;;5.25;3.58;;;;;;;18.61;77.31;98904.22;2618539;54;20049;-70
2021/08/22 01:22:50;;;;;;;4.25;3.20;;;;;;;18.54;77.45;98893.69;2618582;54;20130;-68
2021/08/22 01:25:21;;;;;;;4.38;3.35;;;;;;;18.56;77.09;98906.81;2619449;54;20066;-67
2021/08/22 01:27:52;;;;;;;5.45;3.67;;;;;;;18.51;77.02;98904.88;2619072;54;20034;-70
2021/08/22 01:30:22;;;;;;;4.80;3.67;;;;;;;18.52;77.60;98901.13;2620739;31;20527;-68
2021/08/22 01:32:55;;;;;;;6.75;3.75;;;;;;;18.58;77.61;98910.09;2619505;54;20642;-68
2021/08/22 01:35:27;;;;;;;5.88;3.92;;;;;;;18.52;77.78;98911.84;2618535;54;20038;-69
2021/08/22 01:37:57;;;;;;;4.35;3.60;;;;;;;18.48;77.62;98904.53;2617871;54;20038;-69
2021/08/22 01:40:28;;;;;;;4.68;4.03;;;;;;;18.47;77.41;98895.72;2618293;54;20138;-69
2021/08/22 01:42:58;;;;;;;6.05;3.85;;;;;;;18.48;77.87;98899.19;2618364;54;20054;-68
2021/08/22 01:45:29;;;;;;;5.60;3.42;;;;;;;18.49;78.14;98898.97;2618249;54;20031;-69
2021/08/22 01:48:02;;;;;;;4.53;3.90;;;;;;;18.53;78.38;98899.28;2618483;39;20505;-68
2021/08/22 01:50:32;;;;;;;3.90;3.38;;;;;;;18.61;78.31;98898.88;2618229;54;20118;-69
2021/08/22 01:53:07;;;;;;;4.72;4.20;;;;;;;18.62;78.17;98903.19;2618238;54;20030;-69
2021/08/22 01:55:37;;;;;;;4.82;3.83;;;;;;;18.65;78.01;98900.00;2618320;54;20163;-69
2021/08/22 01:58:08;;;;;;;6.03;4.15;;;;;;;18.70;77.80;98892.13;2617609;54;20594;-69
2021/08/22 02:00:38;;;;;;;5.93;3.97;;;;;;;18.63;77.68;98901.31;2618199;54;20056;-68
2021/08/22 02:03:15;;;;;;;5.82;4.10;;;;;;;18.60;78.07;98899.94;2618332;54;20034;-69
2021/08/22 02:05:46;;;;;;;6.18;4.05;;;;;;;18.55;78.10;98906.03;2618210;54;20022;-69
2021/08/22 02:08:19;;;;;;;4.45;3.85;;;;;;;18.52;78.66;98905.69;2617138;54;20035;-69
2021/08/22 02:10:52;;;;;;;6.03;4.20;;;;;;;18.55;78.61;98899.84;2619168;31;20495;-69
2021/08/22 02:13:27;;;;;;;5.68;4.30;;;;;;;18.59;78.65;98903.69;2618116;54;20031;-69
2021/08/22 02:16:00;;;;;;;7.43;4.45;;;;;;;18.60;79.16;98893.78;2618961;31;20472;-68
2021/08/22 02:18:33;;;;;;;7.10;4.47;;;;;;;18.58;78.74;98895.91;2617729;54;20053;-69
2021/08/22 02:21:03;;;;;;;5.00;4.43;;;;;;;18.54;78.91;98892.88;2618970;31;20553;-69
2021/08/22 02:23:32;;;;;;;5.95;4.28;;;;;;;18.56;79.35;98890.75;2617942;54;20047;-69
2021/08/22 02:26:02;;;;;;;6.45;4.30;;;;;;;18.61;79.05;98890.03;2618283;54;20121;-69
2021/08/22 02:28:33;;;;;;;5.35;4.20;;;;;;;18.64;78.86;98894.91;2617817;54;20074;-68
2021/08/22 02:31:03;;;;;;;5.82;4.55;;;;;;;18.64;78.89;98893.03;2618213;54;20617;-68
2021/08/22 02:33:35;;;;;;;5.07;4.47;;;;;;;18.61;79.01;98908.78;2618070;54;20027;-69
2021/08/22 02:36:05;;;;;;;7.07;4.25;;;;;;;18.61;78.98;98901.56;2618295;54;20081;-69
2021/08/22 02:38:35;;;;;;;7.55;4.97;;;;;;;18.67;79.51;98907.81;2624207;54;20034;-69
2021/08/22 02:41:04;;;;;;;6.57;4.70;;;;;;;18.72;78.84;98906.06;2627634;54;20026;-69
2021/08/22 02:43:34;;;;;;;5.00;4.50;;;;;;;18.73;79.46;98899.66;2627194;47;20038;-69
2021/08/22 02:46:03;;;;;;;6.50;4.72;;;;;;;18.78;79.01;98899.75;2627159;54;20030;-68
2021/08/22 02:48:35;;;;;;;5.97;5.03;;;;;;;18.76;79.39;98901.84;2626805;54;20038;-69
2021/08/22 02:51:05;;;;;;;7.38;4.82;;;;;;;18.74;79.07;98906.66;2626468;54;20047;-69
2021/08/22 02:53:35;;;;;;;8.35;5.30;;;;;;;18.80;79.30;98916.38;2626167;47;20086;-70
2021/08/22 02:56:05;;;;;;;7.32;5.22;;;;;;;18.77;79.58;98913.38;2626798;54;20030;-69
2021/08/22 02:58:35;;;;;;;8.27;4.82;;;;;;;18.77;79.54;98908.81;2626384;54;20800;-71
2021/08/22 03:01:04;;;;;;;7.18;5.20;;;;;;;18.78;79.64;98906.97;2625908;54;20019;-68
2021/08/22 03:03:37;;;;;;;6.38;5.22;;;;;;;18.80;79.39;98904.84;2624911;54;20019;-67
2021/08/22 03:06:06;;;;;;;7.43;5.20;;;;;;;18.82;79.51;98900.06;2624335;54;20059;-68
2021/08/22 03:08:36;;;;;;;7.30;5.50;;;;;;;18.88;79.40;98891.06;2622953;54;20074;-68
2021/08/22 03:11:06;;;;;;;6.57;5.82;;;;;;;18.89;79.36;98897.22;2618081;47;20054;-69
2021/08/22 03:13:35;;;;;;;6.80;5.40;;;;;;;18.88;79.20;98907.13;2618160;54;20149;-70
2021/08/22 03:16:06;;;;;;;8.60;5.32;;;;;;;18.90;79.10;98909.53;2618047;54;20033;-69
2021/08/22 03:18:38;;;;;;;6.40;5.28;;;;;;;18.95;78.88;98907.78;2617422;54;20094;-67
2021/08/22 03:21:08;;;;;;;8.30;5.28;;;;;;;18.95;79.21;98907.78;2617759;54;20070;-69
2021/08/22 03:23:37;;;;;;;8.27;5.95;;;;;;;18.90;79.16;98913.06;2617750;54;20031;-69
2021/08/22 03:26:07;;;;;;;7.00;5.57;;;;;;;18.90;79.36;98906.88;2617751;54;20039;-70
2021/08/22 03:28:36;;;;;;;7.15;5.38;;;;;;;18.92;79.50;98902.91;2617791;39;20423;-68
2021/08/22 03:31:06;;;;;;;7.07;5.70;;;;;;;18.88;79.63;98901.75;2618537;31;20532;-69
2021/08/22 03:33:38;;;;;;;9.70;5.47;;;;;;;18.90;79.69;98896.16;2617252;47;20125;-68
2021/08/22 03:36:08;;;;;;;9.13;5.88;;;;;;;18.92;79.27;98899.41;2621070;31;20558;-68
2021/08/22 03:38:37;;;;;;;9.07;5.78;;;;;;;18.94;78.97;98900.81;2623757;54;20031;-69
2021/08/22 03:41:07;;;;;;;8.65;6.15;;;;;;;18.92;78.84;98908.25;2619228;54;20130;-68
2021/08/22 03:43:36;;;;;;;8.35;5.65;;;;;;;18.92;79.32;98913.63;2618863;39;20505;-69
2021/08/22 03:46:06;;;;;;;9.60;6.10;;;;;;;18.92;79.21;98916.28;2622564;39;20455;-69
2021/08/22 03:48:38;;;;;;;9.85;6.85;;;;;;;18.84;79.08;98905.97;2621566;47;20079;-69
2021/08/22 03:51:08;;;;;;;9.63;6.63;;;;;;;18.67;79.13;98897.91;2621985;54;20070;-69
2021/08/22 03:53:37;;;;;;;8.57;6.70;;;;;;;18.55;79.26;98902.53;2621300;54;20027;-69
2021/08/22 03:56:07;;;;;;;6.65;6.05;;;;;;;18.49;79.23;98906.16;2621544;54;20023;-68
2021/08/22 03:58:36;;;;;;;7.43;6.25;;;;;;;18.49;79.52;98903.47;2619575;54;20146;-69
2021/08/22 04:01:06;;;;;;;8.88;6.15;;;;;;;18.50;79.75;98908.63;2617702;54;20023;-69
2021/08/22 04:03:40;;;;;;;7.82;6.65;;;;;;;18.58;79.93;98909.28;2617610;54;20031;-68
2021/08/22 04:06:29;;;;;;;8.68;6.70;;;;;;;18.62;79.44;98913.91;2617494;54;20033;-68
2021/08/22 04:09:00;;;;;;;7.43;6.63;;;;;;;18.63;79.01;98914.72;2617039;47;20030;-67
2021/08/22 04:11:30;;;;;;;11.45;7.40;;;;;;;18.61;79.31;98911.44;2617614;54;20067;-68
2021/08/22 04:13:59;;;;;;;10.75;7.32;;;;;;;18.64;79.68;98910.97;2617523;54;20121;-67
2021/08/22 04:16:29;;;;;;;8.60;6.70;;;;;;;18.67;79.20;98916.66;2617137;54;20054;-67
2021/08/22 04:19:01;;;;;;;9.63;6.90;;;;;;;18.71;79.44;98917.84;2617500;54;20023;-68
2021/08/22 04:21:31;;;;;;;7.25;6.00;;;;;;;18.72;79.09;98910.59;2617610;54;20051;-67
2021/08/22 04:24:00;;;;;;;11.52;6.75;;;;;;;18.72;79.63;98916.78;2616872;54;20147;-68
2021/08/22 04:26:30;;;;;;;9.57;7.05;;;;;;;18.76;79.55;98917.91;2617077;54;20118;-67
2021/08/22 04:29:00;;;;;;;10.52;7.43;;;;;;;18.77;79.11;98922.19;2617504;54;20042;-67
2021/08/22 04:31:30;;;;;;;10.43;7.03;;;;;;;18.64;79.24;98925.16;2616884;47;20041;-67
2021/08/22 04:34:02;;;;;;;9.15;6.20;;;;;;;18.54;79.84;98925.00;2616962;47;20065;-66
2021/08/22 04:36:31;;;;;;;9.63;6.70;;;;;;;18.44;80.51;98925.63;2617007;54;20134;-68
2021/08/22 04:39:01;;;;;;;7.90;6.65;;;;;;;18.48;80.45;98928.63;2617216;54;20113;-68
2021/08/22 04:41:30;;;;;;;11.60;6.97;;;;;;;18.56;80.30;98934.41;2617662;54;20125;-67
2021/08/22 04:44:00;;;;;;;9.57;6.88;;;;;;;18.67;80.32;98927.38;2617452;54;20170;-67
2021/08/22 04:46:29;;;;;;;10.95;7.00;;;;;;;18.73;79.82;98922.94;2616854;54;20066;-66
2021/08/22 04:49:02;;;;;;;10.48;6.85;;;;;;;18.75;80.09;98920.84;2617764;39;20438;-67
2021/08/22 04:51:32;;;;;;;10.15;6.82;;;;;;;18.81;79.70;98922.53;2616881;47;20030;-66
2021/08/22 04:54:01;;;;;;;8.18;6.80;;;;;;;18.87;79.80;98921.56;2617571;54;20026;-68
2021/08/22 04:56:31;;;;;;;9.05;7.65;;;;;;;18.95;79.63;98923.03;2616922;54;20026;-67
2021/08/22 04:59:00;;;;;;;8.25;7.00;;;;;;;18.97;79.81;98920.91;2617858;39;20527;-66
2021/08/22 05:01:30;;;;;;;10.27;7.50;;;;;;;19.01;79.55;98919.38;2617356;54;20042;-68
2021/08/22 05:04:02;;;;;;;9.52;6.70;;;;;;;19.06;79.77;98916.75;2617285;54;20019;-67
2021/08/22 05:06:32;;;;;;;11.20;8.70;;;;;;;19.13;79.10;98921.97;2616993;54;20027;-66
2021/08/22 05:09:02;;;;;;;12.98;9.38;;;;;;;19.15;79.06;98923.34;2617263;54;20057;-67
2021/08/22 05:11:31;;;;;;;14.60;11.18;;;;;;;19.16;78.70;98926.84;2617318;54;20054;-67
2021/08/22 05:14:01;;;;;;;11.50;10.15;;;;;;;19.10;79.18;98930.47;2617296;54;20055;-67
2021/08/22 05:16:30;;;;;;;12.90;9.90;;;;;;;19.10;78.98;98928.63;2616819;54;20030;-67
2021/08/22 05:19:02;;;;;;;14.98;10.80;;;;;;;19.13;79.39;98930.00;2617255;54;20023;-68
2021/08/22 05:21:32;;;;;;;16.13;11.45;;;;;;;19.15;78.73;98936.75;2617424;54;20023;-67
2021/08/22 05:24:01;;;;;;;17.17;11.95;;;;;;;19.15;79.11;98933.25;2617721;39;20471;-67
2021/08/22 05:26:31;;;;;;;17.65;12.90;;;;;;;19.16;78.88;98942.91;2617270;39;20574;-67
2021/08/22 05:29:00;;;;;;;16.05;12.20;;;;;;;19.20;78.88;98938.69;2617315;54;20118;-66
2021/08/22 05:31:30;;;;;;;16.85;13.27;;;;;;;19.22;79.26;98936.56;2617292;54;20031;-67
2021/08/22 05:33:59;;;;;;;20.45;13.10;;;;;;;19.23;79.18;98948.94;2617235;54;20130;-68
2021/08/22 05:36:37;;;;;;;15.95;12.73;;;;;;;19.24;78.60;98940.63;2617193;39;20523;-66
2021/08/22 05:39:07;;;;;;;18.30;14.27;;;;;;;19.30;78.68;98941.50;2617202;54;20054;-68
2021/08/22 05:41:37;;;;;;;18.92;13.93;;;;;;;19.34;78.56;98937.28;2617266;54;20118;-67
2021/08/22 05:44:07;;;;;;;18.15;13.65;;;;;;;19.35;78.67;98954.16;2617306;54;20125;-66
2021/08/22 05:46:36;;;;;;;17.85;13.90;;;;;;;19.36;78.36;98943.22;2617195;54;20030;-67
2021/08/22 05:49:06;;;;;;;18.27;14.38;;;;;;;19.43;78.30;98948.38;2616774;54;20046;-68
2021/08/22 05:51:38;;;;;;;14.93;11.63;;;;;;;19.48;78.46;98953.84;2616803;54;20530;-67
2021/08/22 05:54:07;;;;;;;17.67;11.63;;;;;;;19.49;78.31;98955.47;2617239;54;20023;-67
2021/08/22 05:56:37;;;;;;;16.13;12.02;;;;;;;19.44;78.17;98964.25;2616742;54;20054;-66
2021/08/22 05:59:06;;;;;;;19.45;12.98;;;;;;;19.45;78.42;98962.38;2618355;39;20173;-66
2021/08/22 06:01:36;;;;;;;19.42;12.73;;;;;;;19.45;78.54;98973.91;2619334;54;20077;-66
2021/08/22 06:04:06;;;;;;;14.02;10.88;;;;;;;19.40;78.72;98970.34;2618887;54;20038;-66
2021/08/22 06:06:44;;;;;;;13.93;10.25;;;;;;;19.42;78.67;98973.56;2618799;47;20042;-66
2021/08/22 06:09:13;;;;;;;17.02;12.40;;;;;;;19.36;78.88;98980.75;2618887;54;20033;-66
2021/08/22 06:11:43;;;;;;;15.23;11.98;;;;;;;19.33;78.95;98985.78;2618788;47;20098;-66
2021/08/22 06:14:13;;;;;;;20.52;13.27;;;;;;;19.29;79.10;98982.78;2619501;54;20026;-65
2021/08/22 06:16:42;;;;;;;21.42;15.63;;;;;;;19.28;79.13;98981.97;2619271;54;20038;-66
2021/08/22 06:19:12;;;;;;;26.30;15.55;;;;;;;19.24;79.22;98988.06;2619543;39;20442;-66
2021/08/22 06:21:45;;;;;;;23.70;16.15;;;;;;;19.27;79.77;98991.06;2619278;54;20030;-66
2021/08/22 06:24:14;;;;;;;22.95;16.73;;;;;;;19.36;79.48;98998.69;2619445;54;20025;-66
2021/08/22 06:26:44;;;;;;;27.27;20.63;;;;;;;19.34;78.45;98990.88;2619021;54;20026;-66
2021/08/22 06:29:14;;;;;;;41.22;24.02;;;;;;;19.25;78.69;98990.50;2619469;54;20023;-67
2021/08/22 06:31:43;;;;;;;31.88;22.30;;;;;;;19.22;78.85;98990.97;2619128;54;20041;-66
2021/08/22 06:34:13;;;;;;;34.15;25.13;;;;;;;19.28;78.37;98991.88;2619141;54;20077;-66
2021/08/22 06:36:45;;;;;;;35.80;25.40;;;;;;;19.33;78.51;98989.28;2618684;54;20019;-66
2021/08/22 06:39:15;;;;;;;30.55;24.10;;;;;;;19.40;78.07;98986.44;2619196;54;20035;-66
2021/08/22 06:41:45;;;;;;;36.80;25.15;;;;;;;19.51;78.06;98988.19;2619392;54;20127;-65
2021/08/22 06:44:15;;;;;;;34.45;24.38;;;;;;;19.63;77.51;98993.47;2619071;54;20066;-66
2021/08/22 06:46:44;;;;;;;34.25;26.00;;;;;;;19.68;77.46;98983.66;2619066;54;20023;-66
2021/08/22 06:49:14;;;;;;;33.20;25.73;;;;;;;19.79;77.46;98996.13;2619007;54;20014;-66
2021/08/22 06:51:46;;;;;;;33.97;25.15;;;;;;;19.87;76.70;98994.06;2618814;54;20026;-66
2021/08/22 06:54:16;;;;;;;33.72;25.20;;;;;;;19.83;76.82;98991.06;2618172;54;20062;-66
2021/08/22 06:56:45;;;;;;;34.00;25.40;;;;;;;19.83;76.24;98995.63;2618520;54;20085;-66
2021/08/22 06:59:15;;;;;;;30.80;24.65;;;;;;;19.89;76.35;98984.72;2618940;54;20043;-66
2021/08/22 07:01:44;;;;;;;34.08;24.15;;;;;;;19.92;76.53;98988.78;2619377;54;20110;-66
2021/08/22 07:04:14;;;;;;;31.67;24.00;;;;;;;19.99;76.21;98987.53;2619765;39;20430;-65
2021/08/22 07:06:47;;;;;;;33.20;25.73;;;;;;;19.99;75.81;98976.81;2618667;54;20034;-65
2021/08/22 07:09:16;;;;;;;36.72;26.92;;;;;;;20.04;75.68;98979.56;2619295;54;20078;-65
2021/08/22 07:11:46;;;;;;;29.42;24.77;;;;;;;20.04;75.82;98982.25;2619368;54;20080;-65
2021/08/22 07:14:16;;;;;;;29.92;23.77;;;;;;;20.13;75.21;98979.94;2619154;54;20550;-66
2021/08/22 07:16:46;;;;;;;34.88;25.27;;;;;;;20.16;75.38;98982.09;2618744;54;20166;-66
2021/08/22 07:19:16;;;;;;;31.40;24.40;;;;;;;20.13;74.92;98979.13;2618363;47;20022;-66
2021/08/22 07:21:48;;;;;;;32.72;25.60;;;;;;;20.06;75.37;98976.63;2619509;54;20082;-65
2021/08/22 07:24:18;;;;;;;30.67;24.10;;;;;;;20.12;75.22;98980.16;2619536;54;20046;-66
2021/08/22 07:26:48;;;;;;;33.47;25.35;;;;;;;20.22;75.32;98977.63;2619199;54;20635;-68
2021/08/22 07:29:18;;;;;;;32.58;25.85;;;;;;;20.17;74.92;98991.00;2619096;47;20027;-67
2021/08/22 07:31:48;;;;;;;28.95;24.40;;;;;;;20.13;75.24;98998.72;2618747;46;20038;-67
2021/08/22 07:34:18;;;;;;;26.88;22.50;;;;;;;20.05;74.99;98993.78;2618555;47;20074;-67
2021/08/22 07:36:50;;;;;;;26.85;22.80;;;;;;;20.03;75.12;98991.34;2619188;54;20038;-66
2021/08/22 07:39:20;;;;;;;27.38;22.77;;;;;;;20.00;74.60;98997.22;2619638;54;20027;-66
2021/08/22 07:41:53;;;;;;;24.15;20.77;;;;;;;19.97;74.61;99002.28;2618969;46;20053;-66
2021/08/22 07:44:23;;;;;;;23.38;20.27;;;;;;;19.98;74.61;98993.97;2618679;54;20039;-66
2021/08/22 07:46:53;;;;;;;21.48;19.15;;;;;;;19.94;74.31;98989.34;2618354;54;20041;-66
2021/08/22 07:49:23;;;;;;;22.88;20.48;;;;;;;19.89;74.23;99003.50;2619215;54;20069;-67
2021/08/22 07:51:56;;;;;;;24.25;20.00;;;;;;;19.95;74.85;98994.44;2619516;54;20049;-67
2021/08/22 07:54:25;;;;;;;24.40;19.38;;;;;;;20.01;74.63;99001.53;2619155;54;20131;-67
2021/08/22 07:56:57;;;;;;;20.95;18.05;;;;;;;19.95;74.15;99005.19;2618595;54;20129;-66
2021/08/22 07:59:27;;;;;;;23.63;19.90;;;;;;;19.94;74.09;99008.13;2618681;47;20043;-67
2021/08/22 08:01:57;;;;;;;21.08;18.75;;;;;;;19.96;74.29;99014.03;2619448;54;20030;-66
2021/08/22 08:04:27;;;;;;;23.25;20.92;;;;;;;20.09;74.00;99012.91;2618824;54;20209;-66
2021/08/22 08:06:59;;;;;;;22.23;19.17;;;;;;;20.22;73.51;99016.00;2618585;54;20033;-67
2021/08/22 08:09:29;;;;;;;21.58;19.33;;;;;;;20.28;72.80;99009.63;2618893;54;20026;-66
2021/08/22 08:11:59;;;;;;;21.38;19.13;;;;;;;20.37;73.09;99011.84;2618989;54;20034;-66
2021/08/22 08:14:29;;;;;;;21.30;19.08;;;;;;;20.51;72.84;99015.81;2618905;47;20057;-66
2021/08/22 08:16:58;;;;;;;20.05;17.88;;;;;;;20.64;71.98;99023.47;2618900;54;20560;-66
2021/08/22 08:19:28;;;;;;;22.92;19.88;;;;;;;20.62;72.08;99022.94;2618445;54;20034;-66
2021/08/22 08:22:00;;;;;;;21.02;18.92;;;;;;;20.59;71.69;99020.75;2618928;54;20102;-66
2021/08/22 08:24:30;;;;;;;20.05;17.23;;;;;;;20.49;71.58;99020.63;2621466;54;20038;-66
2021/08/22 08:27:00;;;;;;;20.02;17.92;;;;;;;20.59;71.51;99018.06;2621175;54;20030;-66
2021/08/22 08:29:29;;;;;;;19.13;17.20;;;;;;;20.70;71.20;99014.41;2622026;39;20446;-67
2021/08/22 08:31:59;;;;;;;19.73;17.05;;;;;;;20.84;71.06;99017.50;2622062;54;20571;-66
2021/08/22 08:34:28;;;;;;;19.33;17.40;;;;;;;20.96;70.74;99023.53;2622159;54;20046;-67
2021/08/22 08:37:01;;;;;;;19.58;15.90;;;;;;;21.05;69.95;99023.06;2621337;54;20027;-67
2021/08/22 08:39:31;;;;;;;23.08;19.55;;;;;;;21.07;69.79;99023.63;2622264;54;20065;-68
2021/08/22 08:42:14;;;;;;;12.15;10.93;;;;;;;21.12;69.01;99027.16;2621134;39;20438;-68
2021/08/22 08:44:44;;;;;;;15.15;10.70;;;;;;;21.11;69.42;99025.56;2621115;54;20026;-67
2021/08/22 08:47:16;;;;;;;11.90;9.82;;;;;;;21.14;69.02;99025.00;2621061;54;20047;-67
2021/08/22 08:49:50;;;;;;;10.68;8.52;;;;;;;21.04;69.44;99016.88;2621444;54;20039;-67
2021/08/22 08:52:26;;;;;;;8.95;7.93;;;;;;;21.00;68.95;99029.22;2621920;54;20054;-67
2021/08/22 08:54:58;;;;;;;10.75;9.63;;;;;;;21.02;69.44;99024.38;2621352;47;20034;-67
2021/08/22 08:57:27;;;;;;;10.05;8.27;;;;;;;21.03;69.26;99026.81;2620970;54;20062;-69
2021/08/22 08:59:57;;;;;;;9.35;7.85;;;;;;;21.03;68.58;99028.72;2622052;54;20027;-67
2021/08/22 09:02:26;;;;;;;8.85;7.95;;;;;;;20.97;69.19;99018.97;2621451;54;20023;-67
2021/08/22 09:05:11;;;;;;;9.73;7.50;;;;;;;20.94;68.62;99019.47;2621759;54;20542;-68
2021/08/22 09:08:11;;;;;;;7.97;7.18;;;;;;;20.84;68.47;99014.00;2621263;54;20034;-67
2021/08/22 09:11:10;;;;;;;8.00;7.20;;;;;;;20.74;68.46;99025.47;2621411;54;20038;-68
2021/08/22 09:14:09;;;;;;;8.88;7.70;;;;;;;20.66;69.06;99029.41;2620958;54;20130;-66
2021/08/22 09:17:18;;;;;;;12.50;7.85;;;;;;;20.62;68.77;99028.31;2618093;39;20545;-64
2021/08/22 09:20:30;;;;;;;8.68;7.85;;;;;;;20.67;68.69;99027.53;2618821;54;20110;-65
2021/08/22 09:23:29;;;;;;;7.72;6.88;;;;;;;20.74;68.22;99022.78;2617954;47;20435;-65
2021/08/22 09:26:41;;;;;;;7.43;6.57;;;;;;;20.90;67.87;99029.09;2618293;54;20113;-65
2021/08/22 09:30:01;;;;;;;8.65;7.78;;;;;;;20.98;68.03;99020.56;2620703;51;20026;-65
2021/08/22 09:33:02;;;;;;;8.18;6.57;;;;;;;21.05;67.11;99018.50;2621028;54;20042;-67
2021/08/22 09:36:01;;;;;;;7.80;6.90;;;;;;;21.12;67.45;99016.41;2621651;54;20532;-67
2021/08/22 09:39:01;;;;;;;9.82;7.15;;;;;;;21.17;67.07;99013.75;2619422;54;20037;-66
2021/08/22 09:42:09;;;;;;;7.85;6.60;;;;;;;21.05;67.35;99013.13;2619115;54;20046;-66
2021/08/22 09:45:26;;;;;;;6.47;5.88;;;;;;;21.01;67.15;99022.75;2619245;54;20571;-64
2021/08/22 09:48:26;;;;;;;9.90;6.43;;;;;;;20.92;66.79;99021.59;2619825;54;20113;-66
2021/08/22 09:51:28;;;;;;;7.93;6.18;;;;;;;20.94;66.70;99028.38;2620271;39;20429;-66
2021/08/22 09:54:44;;;;;;;7.63;6.20;;;;;;;20.95;66.30;99026.47;2618763;54;20121;-66
2021/08/22 09:57:44;;;;;;;6.75;6.05;;;;;;;21.04;66.44;99019.56;2619346;54;20077;-65
2021/08/22 10:00:37;;;;;;;6.63;6.00;;;;;;;21.15;66.49;99021.28;2619182;54;20038;-65
2021/08/22 10:03:30;;;;;;;7.22;6.53;;;;;;;21.29;66.14;99016.28;2619290;54;20038;-65
2021/08/22 10:06:42;;;;;;;6.40;5.80;;;;;;;21.42;65.98;99018.56;2618726;54;20122;-65
2021/08/22 10:09:34;;;;;;;6.55;5.40;;;;;;;21.62;66.04;99009.81;2619736;39;20433;-65
2021/08/22 10:12:04;;;;;;;5.32;4.82;;;;;;;21.81;65.01;99014.78;2618566;47;20050;-65
2021/08/22 10:14:39;;;;;;;5.40;4.90;;;;;;;21.72;63.72;99017.97;2619344;54;20027;-65
2021/08/22 10:17:18;;;;;;;6.43;5.30;;;;;;;21.79;63.74;99015.03;2619110;54;20042;-64
2021/08/22 10:19:50;;;;;;;5.35;4.82;;;;;;;21.68;63.33;99014.16;2619485;54;20027;-65
2021/08/22 10:22:20;;;;;;;5.55;4.95;;;;;;;21.61;64.28;99010.88;2619020;54;20038;-65
2021/08/22 10:24:56;;;;;;;5.38;4.88;;;;;;;21.67;64.04;99014.41;2618747;54;20086;-65
2021/08/22 10:27:58;;;;;;;5.50;5.00;;;;;;;21.76;63.29;99018.25;2619395;31;20528;-66
2021/08/22 10:30:30;;;;;;;4.53;4.10;;;;;;;21.95;63.10;99011.34;2618958;54;20034;-65
2021/08/22 10:33:18;;;;;;;5.05;4.38;;;;;;;22.08;62.68;99018.13;2619836;31;20554;-65
2021/08/22 10:35:48;;;;;;;6.22;5.05;;;;;;;21.87;62.99;99008.34;2619772;54;20042;-65
2021/08/22 10:38:28;;;;;;;5.38;4.88;;;;;;;21.86;63.47;99007.53;2619226;39;20415;-65
2021/08/22 10:41:01;;;;;;;4.88;4.32;;;;;;;21.84;63.05;99000.78;2619265;54;20082;-65
2021/08/22 10:43:38;;;;;;;5.95;4.40;;;;;;;21.87;62.63;98994.88;2619069;54;20143;-65
2021/08/22 10:46:08;;;;;;;4.47;4.07;;;;;;;21.92;62.93;98998.44;2618508;54;20041;-65
2021/08/22 10:49:05;;;;;;;4.38;3.97;;;;;;;21.95;62.22;99005.97;2617868;47;20041;-65
2021/08/22 10:51:34;;;;;;;4.85;4.13;;;;;;;21.76;62.42;99002.91;2618426;54;20090;-65
2021/08/22 10:54:26;;;;;;;4.40;4.00;;;;;;;21.63;64.07;99002.56;2618879;54;20050;-65
2021/08/22 10:56:56;;;;;;;5.80;4.32;;;;;;;21.39;66.55;99013.72;2618496;54;20055;-64
2021/08/22 10:59:25;;;;;;;5.38;4.63;;;;;;;21.13;66.46;99019.91;2618955;54;20038;-65
2021/08/22 11:02:11;;;;;;;6.07;4.57;;;;;;;20.92;67.83;99017.03;2618328;54;20038;-65
2021/08/22 11:04:43;;;;;;;4.82;4.22;;;;;;;20.83;68.43;99007.81;2618227;54;20133;-65
2021/08/22 11:07:13;;;;;;;5.95;4.30;;;;;;;20.76;68.43;99002.66;2618415;54;20572;-65
2021/08/22 11:09:45;;;;;;;4.30;3.90;;;;;;;20.85;68.79;98996.81;2618761;39;20424;-65
2021/08/22 11:12:29;;;;;;;4.97;4.40;;;;;;;20.92;68.62;99000.91;2618565;47;20030;-65
2021/08/22 11:15:00;;;;;;;6.20;4.43;;;;;;;20.99;68.76;99006.09;2619046;54;20045;-65
2021/08/22 11:17:30;;;;;;;5.00;4.13;;;;;;;20.91;69.01;99001.19;2618642;47;20027;-66
2021/08/22 11:20:13;;;;;;;4.70;4.30;;;;;;;20.89;68.56;99001.41;2619327;39;20430;-65
2021/08/22 11:22:43;;;;;;;5.00;4.57;;;;;;;20.82;69.32;99000.00;2618892;54;20035;-65
2021/08/22 11:25:14;;;;;;;5.28;4.53;;;;;;;20.80;69.66;98991.41;2618681;54;20026;-65
2021/08/22 11:27:44;;;;;;;5.35;4.72;;;;;;;20.82;69.65;98994.63;2618572;54;20641;-65
2021/08/22 11:30:15;;;;;;;6.55;4.82;;;;;;;20.79;69.44;98985.22;2619252;39;20415;-65
2021/08/22 11:32:54;;;;;;;7.45;5.55;;;;;;;20.74;70.05;98987.88;2619847;39;20442;-65
2021/08/22 11:35:27;;;;;;;5.10;4.53;;;;;;;20.71;70.34;98989.19;2619487;39;20420;-66
2021/08/22 11:38:03;;;;;;;6.32;4.53;;;;;;;20.65;69.87;99003.59;2619080;54;20672;-65
2021/08/22 11:40:37;;;;;;;7.03;4.55;;;;;;;20.51;70.26;99003.19;2618856;39;20418;-66
2021/08/22 11:43:08;;;;;;;4.97;4.50;;;;;;;20.52;70.68;99002.13;2619808;31;20494;-64
2021/08/22 11:45:43;;;;;;;5.80;4.40;;;;;;;20.51;70.77;98997.84;2619036;54;20041;-64
2021/08/22 11:48:18;;;;;;;6.68;5.00;;;;;;;20.47;71.25;98994.00;2618738;54;20030;-65
2021/08/22 11:50:52;;;;;;;5.25;4.25;;;;;;;20.42;71.63;98998.50;2619219;54;20050;-65
2021/08/22 11:53:30;;;;;;;5.30;4.80;;;;;;;20.34;71.76;99007.00;2619335;54;20036;-66
2021/08/22 11:56:00;;;;;;;7.50;4.93;;;;;;;20.33;72.15;99006.22;2619079;54;20038;-64
2021/08/22 11:58:38;;;;;;;6.85;5.18;;;;;;;20.25;71.65;98980.63;2619065;54;20042;-68